Time;durP1;ratioP1;P1;durP2;ratioP2;P2;SDS_P1;SDS_P2;PMS_P1;PMS_P2;Temp;Humidity;BMP_temperature;BMP_pressure;BME280_temperature;BME280_humidity;BME280_pressure;Samples;Min_cycle;Max_cycle;Signal;HPM_P1;HPM_P2
2023/12/29 00:00:10;;;;;;;32.63;29.33;;;;;;;2.69;73.69;95583.75;5052722;28;20599;-73
2023/12/29 00:02:38;;;;;;;31.25;28.40;;;;;;;2.63;73.80;95591.19;5053819;28;20190;-73
2023/12/29 00:05:07;;;;;;;33.00;29.67;;;;;;;2.63;73.56;95583.03;5052631;28;20194;-73
2023/12/29 00:07:34;;;;;;;32.88;29.67;;;;;;;2.63;73.50;95583.03;5133855;27;20233;-73
2023/12/29 00:10:02;;;;;;;32.47;29.20;;;;;;;2.65;73.32;95580.81;5161249;27;20181;-73
2023/12/29 00:12:29;;;;;;;30.45;27.38;;;;;;;2.64;73.61;95573.75;5161265;27;20213;-73
2023/12/29 00:14:59;;;;;;;31.83;28.73;;;;;;;2.67;73.17;95570.44;5160911;27;20190;-73
2023/12/29 00:17:27;;;;;;;32.58;29.17;;;;;;;2.56;73.69;95574.41;5161774;27;20236;-73
2023/12/29 00:19:54;;;;;;;33.05;29.85;;;;;;;2.45;73.07;95572.88;5161116;27;20213;-73
2023/12/29 00:22:25;;;;;;;32.78;29.40;;;;;;;2.42;73.77;95585.16;5161888;27;20205;-73
2023/12/29 00:24:52;;;;;;;31.17;28.33;;;;;;;2.28;73.45;95587.75;5161238;27;20246;-73
2023/12/29 00:27:21;;;;;;;30.42;27.50;;;;;;;2.23;74.07;95570.66;5161859;27;20577;-73
2023/12/29 00:29:49;;;;;;;30.77;27.73;;;;;;;2.25;74.29;95566.56;5160539;27;20193;-73
2023/12/29 00:32:16;;;;;;;29.38;26.55;;;;;;;2.32;74.60;95568.94;5160254;27;20213;-73
2023/12/29 00:34:44;;;;;;;30.27;27.30;;;;;;;2.25;74.20;95561.13;5159953;27;20205;-73
2023/12/29 00:37:15;;;;;;;29.77;26.77;;;;;;;2.18;74.89;95566.09;5160981;27;20201;-73
2023/12/29 00:39:47;;;;;;;30.40;27.38;;;;;;;2.14;74.28;95562.28;5161316;27;20214;-73
2023/12/29 00:42:17;;;;;;;30.73;27.73;;;;;;;2.08;74.51;95556.13;5160920;27;20240;-73
2023/12/29 00:44:48;;;;;;;29.58;26.85;;;;;;;2.02;75.02;95554.53;5161137;27;20198;-73
2023/12/29 00:47:19;;;;;;;28.83;26.08;;;;;;;2.10;75.44;95567.50;5161452;27;20319;-73
2023/12/29 00:49:46;;;;;;;29.33;26.40;;;;;;;2.21;75.67;95567.41;5160427;27;20205;-74
2023/12/29 00:52:16;;;;;;;29.35;26.50;;;;;;;2.23;75.22;95560.59;5161254;27;20205;-74
2023/12/29 00:54:47;;;;;;;30.83;27.70;;;;;;;2.25;75.54;95565.72;5160349;27;20297;-74
2023/12/29 00:57:17;;;;;;;30.85;27.95;;;;;;;2.34;75.42;95567.53;5160611;27;20260;-74
2023/12/29 00:59:51;;;;;;;28.45;25.75;;;;;;;2.39;75.81;95558.50;5159550;27;20225;-73
2023/12/29 01:02:18;;;;;;;30.13;27.33;;;;;;;2.34;75.60;95553.13;5160220;27;20682;-73
2023/12/29 01:04:45;;;;;;;30.80;27.67;;;;;;;2.40;75.75;95558.22;5161115;27;20202;-73
2023/12/29 01:07:12;;;;;;;30.75;27.63;;;;;;;2.47;75.49;95546.16;5142317;27;20294;-73
2023/12/29 01:09:41;;;;;;;32.63;29.42;;;;;;;2.49;75.03;95554.88;5136430;27;20206;-73
2023/12/29 01:12:09;;;;;;;30.98;27.90;;;;;;;2.52;75.41;95560.53;5136357;27;20194;-73
2023/12/29 01:14:38;;;;;;;31.23;28.10;;;;;;;2.53;75.12;95562.16;5136850;27;20222;-73
2023/12/29 01:17:09;;;;;;;31.67;28.52;;;;;;;2.43;75.10;95570.44;5136136;27;20194;-73
2023/12/29 01:19:37;;;;;;;31.13;28.23;;;;;;;2.45;75.06;95567.44;5135611;27;20199;-74
2023/12/29 01:22:05;;;;;;;30.67;27.70;;;;;;;2.51;75.92;95564.38;5136693;27;20187;-74
2023/12/29 01:24:33;;;;;;;30.83;27.88;;;;;;;2.45;75.55;95551.91;5136195;27;20256;-73
2023/12/29 01:27:00;;;;;;;31.75;28.63;;;;;;;2.42;75.19;95566.09;5135435;27;20187;-73
2023/12/29 01:29:31;;;;;;;32.80;29.63;;;;;;;2.44;75.98;95569.34;5135516;27;20224;-73
2023/12/29 01:31:58;;;;;;;32.72;29.38;;;;;;;2.49;75.72;95568.47;5135911;27;20210;-73
2023/12/29 01:34:32;;;;;;;33.25;29.95;;;;;;;2.57;76.28;95568.66;5135874;27;20190;-73
2023/12/29 01:37:02;;;;;;;30.35;27.33;;;;;;;2.61;75.63;95567.00;5135719;27;20599;-73
2023/12/29 01:39:32;;;;;;;33.08;29.98;;;;;;;2.62;75.62;95575.97;5136004;27;20222;-73
2023/12/29 01:41:59;;;;;;;32.35;29.10;;;;;;;2.65;75.79;95565.31;5134997;27;20191;-73
2023/12/29 01:44:27;;;;;;;32.80;29.40;;;;;;;2.68;76.65;95566.63;5135115;27;20552;-73
2023/12/29 01:46:58;;;;;;;32.05;29.13;;;;;;;2.61;75.73;95567.00;5135270;27;20539;-73
2023/12/29 01:49:28;;;;;;;33.42;30.20;;;;;;;2.49;75.22;95563.84;5135700;27;20247;-73
2023/12/29 01:51:57;;;;;;;31.83;28.88;;;;;;;2.38;75.43;95562.34;5135433;27;20202;-73
2023/12/29 01:54:27;;;;;;;33.30;30.08;;;;;;;2.22;74.72;95556.25;5135141;28;20266;-73
2023/12/29 01:56:57;;;;;;;31.77;28.63;;;;;;;2.07;74.75;95550.94;5135028;28;20191;-74
2023/12/29 01:59:28;;;;;;;32.58;29.38;;;;;;;2.06;75.53;95561.00;5134972;28;20259;-74
2023/12/29 02:01:59;;;;;;;31.23;28.30;;;;;;;2.03;75.64;95547.97;5135929;28;20187;-74
2023/12/29 02:04:33;;;;;;;31.38;28.48;;;;;;;2.05;75.80;95547.72;5134385;28;20203;-74
2023/12/29 02:07:03;;;;;;;30.40;27.30;;;;;;;2.10;76.20;95540.28;5134460;28;20278;-74
2023/12/29 02:09:30;;;;;;;30.35;27.50;;;;;;;2.15;75.68;95542.16;5134892;28;20508;-74
2023/12/29 02:11:57;;;;;;;30.00;27.13;;;;;;;2.21;76.48;95532.03;5135806;28;20195;-74
2023/12/29 02:14:24;;;;;;;29.27;26.48;;;;;;;2.17;76.04;95538.03;5135140;28;20302;-74
2023/12/29 02:16:59;;;;;;;30.60;27.70;;;;;;;2.14;75.99;95516.88;5135591;28;20191;-74
2023/12/29 02:19:39;;;;;;;29.20;26.40;;;;;;;2.17;76.39;95508.09;5134274;28;20199;-73
2023/12/29 02:22:06;;;;;;;29.00;26.15;;;;;;;2.15;75.92;95504.88;5135365;28;20302;-73
2023/12/29 02:24:36;;;;;;;30.08;27.27;;;;;;;2.08;75.57;95509.03;5135175;28;20213;-72
2023/12/29 02:27:14;;;;;;;29.13;26.45;;;;;;;1.88;75.51;95508.13;5134798;28;20237;-73
2023/12/29 02:29:46;;;;;;;28.17;25.58;;;;;;;1.74;75.00;95511.81;5135153;28;20213;-73
2023/12/29 02:32:18;;;;;;;30.05;27.20;;;;;;;1.69;75.54;95515.41;5134673;28;20199;-73
2023/12/29 02:34:52;;;;;;;29.92;26.90;;;;;;;1.70;75.75;95522.44;5134910;28;20191;-73
2023/12/29 02:37:20;;;;;;;28.75;25.88;;;;;;;1.79;75.81;95511.78;5135040;28;20282;-73
2023/12/29 02:39:48;;;;;;;27.80;25.40;;;;;;;1.81;76.06;95520.44;5134942;28;20207;-73
2023/12/29 02:42:18;;;;;;;28.83;26.23;;;;;;;1.78;76.10;95510.97;5135494;28;20225;-73
2023/12/29 02:44:48;;;;;;;27.73;25.02;;;;;;;1.82;76.26;95497.63;5135879;28;20248;-73
2023/12/29 02:47:16;;;;;;;26.85;24.45;;;;;;;1.88;76.68;95497.25;5135243;28;20277;-73
2023/12/29 02:49:44;;;;;;;27.40;24.80;;;;;;;1.89;76.67;95490.75;5135166;28;20272;-73
2023/12/29 02:52:11;;;;;;;27.70;25.00;;;;;;;1.92;76.29;95489.34;5135432;27;20255;-73
2023/12/29 02:54:38;;;;;;;29.35;26.63;;;;;;;1.96;76.22;95486.84;5138952;27;20203;-73
2023/12/29 02:57:07;;;;;;;28.65;25.80;;;;;;;1.99;76.14;95487.09;5139080;27;20191;-73
2023/12/29 02:59:38;;;;;;;28.17;25.52;;;;;;;1.99;76.39;95486.28;5138573;27;20584;-72
2023/12/29 03:02:06;;;;;;;27.35;24.85;;;;;;;1.90;75.97;95492.34;5139370;27;20214;-72
2023/12/29 03:04:35;;;;;;;26.60;24.10;;;;;;;1.90;75.88;95486.09;5139212;27;20202;-72
2023/12/29 03:07:06;;;;;;;27.45;24.95;;;;;;;1.88;76.06;95477.41;5085718;27;20248;-72
2023/12/29 03:09:36;;;;;;;26.50;24.05;;;;;;;1.83;75.95;95469.31;5037749;28;20189;-71
2023/12/29 03:12:03;;;;;;;26.90;24.42;;;;;;;1.74;75.53;95466.38;5037833;28;20211;-71
2023/12/29 03:14:32;;;;;;;27.60;24.92;;;;;;;1.62;75.94;95472.22;5036916;28;20198;-71
2023/12/29 03:17:01;;;;;;;27.85;25.13;;;;;;;1.52;75.76;95472.31;5036844;28;20259;-71
2023/12/29 03:19:30;;;;;;;27.75;25.10;;;;;;;1.56;76.43;95472.53;5037836;28;20368;-71
2023/12/29 03:21:58;;;;;;;27.20;24.80;;;;;;;1.60;76.16;95473.63;5037526;28;20585;-71
2023/12/29 03:24:25;;;;;;;27.55;24.95;;;;;;;1.64;76.14;95483.63;5036967;28;20197;-71
2023/12/29 03:26:52;;;;;;;27.25;24.65;;;;;;;1.66;76.19;95475.19;5037457;28;20227;-71
2023/12/29 03:29:19;;;;;;;27.85;25.35;;;;;;;1.69;76.13;95475.41;5036983;28;20238;-71
2023/12/29 03:31:46;;;;;;;29.17;26.27;;;;;;;1.74;76.52;95468.31;5037409;28;20630;-71
2023/12/29 03:34:19;;;;;;;30.65;27.65;;;;;;;1.75;76.18;95468.03;5020229;28;20198;-71
2023/12/29 03:36:48;;;;;;;31.20;28.05;;;;;;;1.84;76.42;95460.03;5036715;28;20190;-71
2023/12/29 03:39:16;;;;;;;31.83;28.70;;;;;;;1.87;76.57;95460.28;5036865;28;20202;-72
2023/12/29 03:41:44;;;;;;;29.73;26.98;;;;;;;1.93;76.61;95472.75;5036660;28;20270;-72
2023/12/29 03:44:13;;;;;;;30.10;27.15;;;;;;;1.94;76.14;95476.25;5036544;28;20233;-71
2023/12/29 03:46:44;;;;;;;28.60;25.95;;;;;;;1.87;75.59;95471.16;5037111;28;20300;-71
2023/12/29 03:49:12;;;;;;;28.60;25.90;;;;;;;1.80;75.19;95467.16;5036602;28;20179;-70
2023/12/29 03:51:42;;;;;;;30.25;27.35;;;;;;;1.71;75.22;95477.88;5036818;28;20629;-70
2023/12/29 03:54:10;;;;;;;29.83;27.13;;;;;;;1.60;75.12;95473.63;5036780;28;20201;-69
2023/12/29 03:56:41;;;;;;;31.38;28.30;;;;;;;1.56;75.34;95477.97;5036789;28;20198;-69
2023/12/29 03:59:09;;;;;;;31.02;27.90;;;;;;;1.54;75.53;95474.75;5036681;28;20594;-69
2023/12/29 04:01:36;;;;;;;31.20;28.42;;;;;;;1.55;75.59;95474.47;5035992;28;20718;-69
2023/12/29 04:04:04;;;;;;;44.03;39.88;;;;;;;1.53;75.59;95467.72;5035187;28;20198;-69
2023/12/29 04:06:31;;;;;;;33.28;30.15;;;;;;;1.53;75.55;95478.59;5036423;28;20229;-69
2023/12/29 04:09:00;;;;;;;31.65;28.65;;;;;;;1.49;75.74;95474.78;5036682;28;20202;-69
2023/12/29 04:11:28;;;;;;;31.02;28.05;;;;;;;1.49;75.91;95475.63;5036217;28;20205;-69
2023/12/29 04:13:55;;;;;;;30.65;27.90;;;;;;;1.40;75.24;95480.84;5036407;28;20187;-70
2023/12/29 04:16:23;;;;;;;32.10;29.20;;;;;;;1.37;75.61;95481.41;5035810;28;20205;-70
2023/12/29 04:18:52;;;;;;;32.88;29.88;;;;;;;1.38;75.31;95477.63;5036032;28;20227;-70
2023/12/29 04:21:20;;;;;;;30.92;28.20;;;;;;;1.38;74.99;95474.06;5036478;28;20229;-72
2023/12/29 04:23:49;;;;;;;30.52;27.75;;;;;;;1.42;75.55;95478.66;5036633;28;20198;-71
2023/12/29 04:26:20;;;;;;;31.73;28.83;;;;;;;1.44;75.23;95467.50;5036562;28;20190;-72
2023/12/29 04:28:48;;;;;;;33.58;30.23;;;;;;;1.36;75.50;95479.78;5035806;28;20231;-72
2023/12/29 04:31:18;;;;;;;35.47;32.17;;;;;;;1.19;75.03;95474.75;5036099;28;20685;-72
2023/12/29 04:33:45;;;;;;;35.35;32.05;;;;;;;1.07;75.19;95470.78;5035777;28;20202;-72
2023/12/29 04:36:14;;;;;;;36.28;32.78;;;;;;;1.07;75.96;95477.03;5035721;28;20205;-72
2023/12/29 04:38:41;;;;;;;36.33;32.95;;;;;;;1.16;75.98;95483.50;5036055;28;20206;-71
2023/12/29 04:41:10;;;;;;;36.25;32.88;;;;;;;1.10;75.93;95484.63;5036204;28;20213;-71
2023/12/29 04:43:39;;;;;;;37.75;34.05;;;;;;;1.09;76.38;95480.28;5035846;28;20229;-71
2023/12/29 04:46:06;;;;;;;34.13;30.92;;;;;;;1.04;75.73;95482.22;5054025;28;20216;-71
2023/12/29 04:48:35;;;;;;;35.72;32.42;;;;;;;1.06;75.81;95482.75;5035701;28;20220;-71
2023/12/29 04:51:05;;;;;;;34.97;31.67;;;;;;;1.13;75.95;95489.50;5035778;28;20202;-72
2023/12/29 04:53:32;;;;;;;35.85;32.25;;;;;;;1.17;76.34;95476.97;5036186;28;20284;-72
2023/12/29 04:55:59;;;;;;;38.28;34.65;;;;;;;1.22;75.61;95476.09;5035471;28;20190;-72
2023/12/29 04:58:28;;;;;;;34.55;31.35;;;;;;;1.26;76.07;95469.00;5035267;28;20637;-72
2023/12/29 05:01:01;;;;;;;34.75;31.38;;;;;;;1.25;75.54;95474.72;5035027;28;20648;-72
2023/12/29 05:03:31;;;;;;;34.78;31.58;;;;;;;1.16;75.63;95472.63;5035416;28;20206;-72
2023/12/29 05:06:02;;;;;;;34.63;31.40;;;;;;;1.14;75.45;95474.00;5033704;28;20212;-71
2023/12/29 05:08:29;;;;;;;35.15;31.85;;;;;;;1.17;75.78;95470.72;5035368;28;20201;-71
2023/12/29 05:11:00;;;;;;;35.35;32.05;;;;;;;1.19;75.67;95463.88;5036119;28;20206;-71
2023/12/29 05:13:27;;;;;;;34.65;31.50;;;;;;;1.21;75.85;95452.75;5034972;28;20198;-72
2023/12/29 05:16:00;;;;;;;33.00;29.90;;;;;;;1.19;76.08;95461.16;5035419;28;20234;-71
2023/12/29 05:18:29;;;;;;;34.58;31.35;;;;;;;1.18;75.88;95459.56;5034874;28;20201;-72
2023/12/29 05:20:59;;;;;;;34.33;31.05;;;;;;;1.08;75.70;95467.78;5035685;28;20262;-72
2023/12/29 05:23:29;;;;;;;35.85;32.33;;;;;;;1.00;75.43;95464.88;5035395;28;20197;-71
2023/12/29 05:25:57;;;;;;;36.20;32.78;;;;;;;1.00;75.25;95462.94;5035266;28;20201;-70
2023/12/29 05:28:24;;;;;;;37.25;33.65;;;;;;;1.04;75.42;95465.91;5035888;28;20202;-74
2023/12/29 05:30:56;;;;;;;35.33;31.92;;;;;;;1.08;75.67;95458.81;5034989;28;20242;-74
2023/12/29 05:33:39;;;;;;;33.88;30.67;;;;;;;1.09;75.61;95460.44;5034730;28;20637;-74
2023/12/29 05:36:10;;;;;;;34.05;30.77;;;;;;;1.16;75.93;95463.66;5034841;28;20189;-73
2023/12/29 05:38:41;;;;;;;35.33;31.90;;;;;;;1.16;76.43;95463.66;5034885;28;20243;-74
2023/12/29 05:41:08;;;;;;;35.38;32.03;;;;;;;1.15;76.50;95464.75;5035030;28;20674;-74
2023/12/29 05:43:37;;;;;;;35.30;31.98;;;;;;;1.18;76.21;95475.06;5034753;28;20250;-74
2023/12/29 05:46:11;;;;;;;33.75;30.65;;;;;;;1.20;75.79;95473.69;5035351;28;20201;-74
2023/12/29 05:48:44;;;;;;;36.83;33.20;;;;;;;1.22;76.40;95475.28;5036033;28;20291;-73
2023/12/29 05:51:14;;;;;;;37.17;33.08;;;;;;;1.15;75.96;95479.13;5035666;28;20621;-75
2023/12/29 05:53:41;;;;;;;36.40;32.80;;;;;;;1.06;76.08;95467.25;5018957;28;20202;-76
2023/12/29 05:56:09;;;;;;;35.05;30.25;;;;;;;1.01;75.36;95470.00;5035271;28;20189;-73
2023/12/29 05:58:36;;;;;;;39.90;35.97;;;;;;;1.01;75.76;95471.91;5035228;28;20246;-74
2023/12/29 06:01:06;;;;;;;42.22;38.35;;;;;;;0.88;75.59;95460.59;5034911;28;20219;-75
2023/12/29 06:03:35;;;;;;;43.97;39.92;;;;;;;0.75;75.43;95463.94;5035295;28;20205;-74
2023/12/29 06:06:04;;;;;;;44.63;40.60;;;;;;;0.75;75.69;95458.50;5034968;27;20197;-71
2023/12/29 06:08:35;;;;;;;47.72;43.28;;;;;;;0.76;76.44;95453.88;5034230;28;20201;-71
2023/12/29 06:11:02;;;;;;;45.53;41.42;;;;;;;0.70;76.05;95453.91;5034720;28;20194;-71
2023/12/29 06:13:30;;;;;;;48.88;44.38;;;;;;;0.78;76.55;95454.41;5034527;28;20201;-71
2023/12/29 06:15:59;;;;;;;45.25;41.00;;;;;;;0.71;76.66;95452.81;5034464;28;20194;-71
2023/12/29 06:18:26;;;;;;;48.45;44.13;;;;;;;0.69;76.67;95459.63;5034174;28;20430;-71
2023/12/29 06:20:53;;;;;;;46.65;42.38;;;;;;;0.63;76.94;95463.47;5034590;28;20258;-70
2023/12/29 06:23:21;;;;;;;45.90;41.58;;;;;;;0.68;77.42;95471.56;5034290;28;20190;-73
2023/12/29 06:25:52;;;;;;;47.97;43.28;;;;;;;0.80;77.56;95473.94;5034591;28;20190;-70
2023/12/29 06:28:19;;;;;;;49.00;44.35;;;;;;;0.82;77.17;95474.50;5037274;28;20206;-66
2023/12/29 06:30:49;;;;;;;50.90;46.10;;;;;;;0.87;76.94;95474.44;5055243;28;20182;-67
2023/12/29 06:33:16;;;;;;;49.25;44.75;;;;;;;0.93;77.02;95471.41;5037847;28;20213;-70
2023/12/29 06:35:43;;;;;;;50.50;45.97;;;;;;;1.01;77.04;95469.19;5038418;28;20201;-75
2023/12/29 06:38:10;;;;;;;47.20;42.75;;;;;;;1.08;77.12;95475.94;5038275;28;20193;-74
2023/12/29 06:40:38;;;;;;;47.05;42.78;;;;;;;1.15;76.84;95473.69;5037953;28;20206;-72
2023/12/29 06:43:06;;;;;;;44.83;40.60;;;;;;;1.23;77.13;95476.91;5037762;28;20270;-75
2023/12/29 06:45:35;;;;;;;43.55;39.47;;;;;;;1.26;77.42;95481.78;5038320;28;20262;-75
2023/12/29 06:48:06;;;;;;;44.05;40.08;;;;;;;1.28;77.07;95474.97;5037920;28;20202;-76
2023/12/29 06:50:34;;;;;;;43.03;38.88;;;;;;;1.32;77.31;95472.50;5037963;28;20213;-75
2023/12/29 06:53:03;;;;;;;42.70;38.50;;;;;;;1.39;76.94;95473.00;5037669;28;20275;-74
2023/12/29 06:55:31;;;;;;;44.80;40.50;;;;;;;1.39;77.28;95473.78;5038304;28;20194;-73
2023/12/29 06:58:01;;;;;;;46.67;42.08;;;;;;;1.39;76.84;95464.84;5037883;28;20205;-75
2023/12/29 07:00:29;;;;;;;51.33;46.53;;;;;;;1.41;77.40;95468.88;5038002;28;20194;-74
2023/12/29 07:02:57;;;;;;;47.47;43.17;;;;;;;1.35;77.10;95478.19;5037334;28;20233;-74
2023/12/29 07:05:27;;;;;;;42.25;38.50;;;;;;;1.30;76.90;95475.50;5037088;28;20197;-74
2023/12/29 07:07:57;;;;;;;39.65;36.13;;;;;;;1.25;77.11;95472.81;5031902;28;20245;-74
2023/12/29 07:10:24;;;;;;;40.42;36.67;;;;;;;1.31;77.96;95471.69;5034318;28;20201;-75
2023/12/29 07:12:55;;;;;;;39.30;35.80;;;;;;;1.39;78.02;95478.41;5033995;28;20198;-75
2023/12/29 07:15:26;;;;;;;40.35;36.75;;;;;;;1.50;78.41;95471.81;5033975;28;20198;-74
2023/12/29 07:17:53;;;;;;;41.75;37.95;;;;;;;1.63;77.82;95473.88;5034018;28;20592;-74
2023/12/29 07:20:22;;;;;;;43.55;39.45;;;;;;;1.76;77.82;95466.13;5033592;28;20248;-74
2023/12/29 07:22:49;;;;;;;43.67;39.67;;;;;;;1.90;78.13;95475.22;5033888;28;20593;-70
2023/12/29 07:25:17;;;;;;;49.28;44.78;;;;;;;2.03;77.51;95471.00;5033840;28;20202;-72
2023/12/29 07:27:44;;;;;;;63.00;57.25;;;;;;;2.10;77.52;95458.66;5033701;28;20198;-75
2023/12/29 07:30:12;;;;;;;56.72;51.53;;;;;;;2.19;77.16;95447.97;5033911;28;20199;-72
2023/12/29 07:32:51;;;;;;;59.30;53.97;;;;;;;2.35;77.37;95448.56;5034102;28;20211;-73
2023/12/29 07:35:20;;;;;;;52.95;48.08;;;;;;;2.51;76.93;95447.28;5034066;28;20285;-73
2023/12/29 07:37:49;;;;;;;54.13;49.22;;;;;;;2.69;76.81;95451.13;5033947;28;20209;-74
2023/12/29 07:40:16;;;;;;;53.97;49.08;;;;;;;2.82;76.41;95442.22;5033349;28;20194;-73
2023/12/29 07:42:46;;;;;;;51.20;46.22;;;;;;;2.87;76.13;95436.72;5033692;28;20222;-72
2023/12/29 07:45:14;;;;;;;48.72;44.25;;;;;;;3.02;76.19;95451.22;5033328;28;20209;-71
2023/12/29 07:47:42;;;;;;;41.60;37.60;;;;;;;3.17;75.79;95450.97;5033874;28;20191;-74
2023/12/29 07:50:10;;;;;;;50.33;45.75;;;;;;;3.29;75.41;95462.22;5033206;28;20190;-69
2023/12/29 07:52:36;;;;;;;52.88;48.13;;;;;;;3.44;75.46;95465.81;5033714;28;20598;-69
2023/12/29 07:55:04;;;;;;;44.90;40.78;;;;;;;3.59;75.45;95455.47;5033481;28;20199;-69
2023/12/29 07:57:31;;;;;;;49.70;45.10;;;;;;;3.76;74.65;95460.34;5033976;28;20194;-69
2023/12/29 07:59:58;;;;;;;48.03;43.50;;;;;;;3.93;74.67;95458.97;5033646;28;20195;-69
2023/12/29 08:02:28;;;;;;;46.40;42.00;;;;;;;4.07;74.04;95470.72;5032694;28;20218;-69
2023/12/29 08:05:01;;;;;;;45.67;41.45;;;;;;;4.19;74.10;95459.28;5032819;28;20202;-68
2023/12/29 08:07:28;;;;;;;47.78;43.42;;;;;;;4.29;73.80;95456.38;5032922;28;20230;-69
2023/12/29 08:09:57;;;;;;;47.95;43.30;;;;;;;4.39;73.76;95452.59;5032841;28;20198;-71
2023/12/29 08:12:24;;;;;;;49.80;45.38;;;;;;;4.51;73.85;95456.44;5033170;28;20285;-69
2023/12/29 08:14:51;;;;;;;46.63;41.92;;;;;;;4.66;73.81;95455.31;5033425;28;20206;-69
2023/12/29 08:17:19;;;;;;;48.25;43.50;;;;;;;4.76;73.33;95463.31;5033110;28;20243;-68
2023/12/29 08:19:46;;;;;;;52.03;46.63;;;;;;;4.82;73.01;95456.59;5032488;28;20201;-67
2023/12/29 08:22:14;;;;;;;61.47;55.78;;;;;;;4.91;73.02;95450.44;5033268;28;20214;-66
2023/12/29 08:24:43;;;;;;;60.13;54.00;;;;;;;5.06;72.92;95455.53;5033104;28;20248;-66
2023/12/29 08:27:10;;;;;;;76.15;67.53;;;;;;;5.21;72.46;95454.38;5033161;28;20199;-69
2023/12/29 08:29:38;;;;;;;78.35;69.88;;;;;;;5.30;71.56;95461.53;5032757;28;20207;-73
2023/12/29 08:32:07;;;;;;;76.18;65.90;;;;;;;5.46;72.13;95458.44;5032872;28;20256;-71
2023/12/29 08:34:35;;;;;;;74.22;66.30;;;;;;;5.50;72.79;95464.91;5033137;28;20211;-71
2023/12/29 08:37:04;;;;;;;91.20;82.38;;;;;;;5.50;70.55;95462.97;5032162;28;20206;-73
2023/12/29 08:39:35;;;;;;;71.72;64.38;;;;;;;5.50;69.87;95464.91;5032615;28;20222;-69
2023/12/29 08:42:06;;;;;;;80.10;72.75;;;;;;;5.56;69.71;95466.41;5032999;28;20218;-68
2023/12/29 08:44:33;;;;;;;80.55;73.30;;;;;;;5.64;69.53;95462.91;5033073;28;20213;-68
2023/12/29 08:47:00;;;;;;;84.15;76.57;;;;;;;5.73;68.84;95469.22;5032768;28;20207;-73
2023/12/29 08:49:27;;;;;;;85.43;77.60;;;;;;;5.85;68.97;95456.94;5033135;28;20278;-72
2023/12/29 08:51:58;;;;;;;83.15;75.53;;;;;;;6.00;69.09;95454.63;5033033;28;20206;-72
2023/12/29 08:54:28;;;;;;;74.93;67.95;;;;;;;6.19;67.89;95470.81;5033084;28;20282;-77
2023/12/29 08:57:00;;;;;;;73.25;66.15;;;;;;;6.31;67.22;95466.69;5032705;28;20648;-76
2023/12/29 08:59:28;;;;;;;73.25;66.32;;;;;;;6.40;66.81;95465.59;5033660;28;20187;-73
2023/12/29 09:01:56;;;;;;;68.18;61.47;;;;;;;6.47;66.18;95470.63;5032366;28;20199;-71
2023/12/29 09:04:25;;;;;;;70.75;64.03;;;;;;;6.59;65.71;95470.00;5032321;28;20581;-69
2023/12/29 09:06:52;;;;;;;70.05;63.30;;;;;;;6.68;65.27;95468.91;5089369;27;20724;-73
2023/12/29 09:09:19;;;;;;;69.72;62.92;;;;;;;6.76;64.79;95464.59;5161153;27;20193;-71
2023/12/29 09:11:51;;;;;;;68.30;61.65;;;;;;;6.84;64.99;95457.50;5159739;27;20186;-72
2023/12/29 09:14:19;;;;;;;69.10;62.42;;;;;;;6.96;64.75;95460.41;5159347;27;20209;-69
2023/12/29 09:16:47;;;;;;;66.97;60.75;;;;;;;7.10;64.59;95458.34;5160303;27;20253;-72
2023/12/29 09:19:14;;;;;;;67.90;61.35;;;;;;;7.27;64.47;95454.00;5160537;27;20242;-77
2023/12/29 09:21:41;;;;;;;64.50;58.10;;;;;;;7.36;63.62;95455.59;5161262;27;20186;-74
2023/12/29 09:24:11;;;;;;;64.00;57.70;;;;;;;7.47;63.12;95447.84;5160121;27;20266;-73
2023/12/29 09:26:38;;;;;;;63.75;57.65;;;;;;;7.58;62.75;95438.16;5161273;27;20243;-74
2023/12/29 09:29:07;;;;;;;63.45;57.40;;;;;;;7.80;62.56;95433.59;5160845;27;20242;-72
2023/12/29 09:31:39;;;;;;;62.95;56.97;;;;;;;8.08;62.34;95423.84;5159919;27;20201;-73
2023/12/29 09:34:07;;;;;;;63.67;57.78;;;;;;;8.46;61.43;95427.75;5159742;27;20190;-73
2023/12/29 09:36:37;;;;;;;60.60;54.53;;;;;;;8.60;60.70;95415.38;5159283;27;20209;-73
2023/12/29 09:39:04;;;;;;;56.88;51.50;;;;;;;8.76;59.96;95418.38;5160653;27;20584;-74
2023/12/29 09:41:32;;;;;;;57.90;52.50;;;;;;;8.95;60.17;95412.44;5159601;27;20209;-74
2023/12/29 09:44:05;;;;;;;59.45;53.45;;;;;;;9.27;59.27;95415.63;5159147;27;20278;-74
2023/12/29 09:46:35;;;;;;;57.00;51.17;;;;;;;9.51;58.48;95415.72;5158888;27;20198;-74
2023/12/29 09:49:10;;;;;;;56.58;51.00;;;;;;;9.64;57.79;95416.59;5159636;27;20194;-74
2023/12/29 09:51:39;;;;;;;53.85;48.67;;;;;;;9.73;57.80;95416.50;5160178;27;20230;-74
2023/12/29 09:54:07;;;;;;;53.42;48.13;;;;;;;9.95;56.71;95404.28;5159762;27;20207;-74
2023/12/29 09:56:35;;;;;;;59.58;53.55;;;;;;;10.18;56.26;95407.44;5159076;27;20250;-74
2023/12/29 09:59:04;;;;;;;84.40;76.68;;;;;;;10.42;55.34;95409.44;5158857;27;20253;-74
2023/12/29 10:01:33;;;;;;;68.00;61.40;;;;;;;10.55;55.04;95406.34;5159384;27;20197;-74
2023/12/29 10:04:03;;;;;;;51.53;46.50;;;;;;;10.48;54.84;95397.03;5162608;27;20213;-74
2023/12/29 10:06:37;;;;;;;49.78;44.95;;;;;;;10.47;54.58;95393.47;5146376;27;20659;-74
2023/12/29 10:09:05;;;;;;;48.08;43.42;;;;;;;10.54;53.98;95385.44;5145846;27;20629;-73
2023/12/29 10:11:35;;;;;;;45.38;41.08;;;;;;;10.68;53.90;95376.81;5145743;27;20287;-71
2023/12/29 10:14:11;;;;;;;47.60;43.00;;;;;;;10.75;53.59;95387.28;5146375;27;20197;-70
2023/12/29 10:16:43;;;;;;;47.75;43.03;;;;;;;10.64;53.63;95366.81;5145834;27;20203;-72
2023/12/29 10:19:21;;;;;;;47.08;42.47;;;;;;;10.65;54.06;95371.19;5058009;28;20201;-70
2023/12/29 10:21:58;;;;;;;48.67;43.92;;;;;;;10.56;53.65;95361.06;5075524;27;20193;-72
2023/12/29 10:24:26;;;;;;;50.50;45.50;;;;;;;10.36;53.24;95362.00;5146219;27;20218;-72
2023/12/29 10:26:54;;;;;;;44.22;39.58;;;;;;;10.08;54.41;95354.34;5146364;27;20229;-71
2023/12/29 10:29:21;;;;;;;42.83;38.42;;;;;;;9.85;55.54;95350.44;5145841;27;20693;-70
2023/12/29 10:31:49;;;;;;;46.35;41.50;;;;;;;9.55;55.50;95341.50;5145695;27;20205;-72
2023/12/29 10:34:28;;;;;;;45.25;40.53;;;;;;;9.36;57.15;95355.78;5146074;27;20524;-72
2023/12/29 10:36:57;;;;;;;56.05;50.42;;;;;;;9.22;58.48;95344.25;5146968;27;20212;-74
2023/12/29 10:39:25;;;;;;;54.38;49.03;;;;;;;9.12;59.12;95349.03;5145523;27;20449;-74
2023/12/29 10:42:05;;;;;;;57.17;50.85;;;;;;;9.03;58.93;95329.03;5147461;27;20261;-74
2023/12/29 10:44:33;;;;;;;53.95;48.65;;;;;;;8.97;60.22;95324.06;5146080;27;20311;-74
2023/12/29 10:47:09;;;;;;;54.10;48.58;;;;;;;8.89;60.34;95315.53;5145655;27;20217;-74
2023/12/29 10:49:36;;;;;;;54.40;48.90;;;;;;;8.87;60.22;95311.53;5145353;27;20219;-74
2023/12/29 10:52:12;;;;;;;53.85;48.35;;;;;;;8.84;60.58;95309.44;5145625;27;20578;-75
2023/12/29 10:54:43;;;;;;;56.00;50.40;;;;;;;8.83;60.83;95308.66;5145116;27;20616;-71
2023/12/29 10:57:12;;;;;;;54.80;49.40;;;;;;;8.83;61.41;95303.16;5145034;27;20196;-73
2023/12/29 10:59:42;;;;;;;56.63;50.50;;;;;;;8.84;61.55;95291.00;5144939;27;20205;-71
2023/12/29 11:02:19;;;;;;;55.53;49.67;;;;;;;8.85;61.46;95297.31;5144909;27;20205;-72
2023/12/29 11:04:46;;;;;;;57.60;51.47;;;;;;;8.86;61.39;95290.66;5144834;27;20232;-71
2023/12/29 11:07:17;;;;;;;56.63;50.83;;;;;;;8.88;62.20;95291.94;5127749;27;20242;-71
2023/12/29 11:09:44;;;;;;;54.80;49.20;;;;;;;8.91;62.65;95279.47;5121006;27;20260;-70
2023/12/29 11:12:13;;;;;;;53.35;48.08;;;;;;;9.00;62.94;95276.63;5121280;27;20297;-70
2023/12/29 11:14:51;;;;;;;53.13;47.78;;;;;;;9.15;63.42;95270.50;5120980;27;20195;-70
2023/12/29 11:17:21;;;;;;;55.22;49.63;;;;;;;9.42;63.59;95271.03;5121115;27;20294;-70
2023/12/29 11:19:48;;;;;;;57.88;51.65;;;;;;;9.73;63.92;95265.00;5120906;27;20198;-71
2023/12/29 11:22:19;;;;;;;59.45;53.42;;;;;;;10.09;62.86;95256.78;5120830;27;20207;-71
2023/12/29 11:24:48;;;;;;;64.18;57.47;;;;;;;10.46;61.43;95265.03;5121635;27;20207;-71
2023/12/29 11:27:20;;;;;;;63.60;56.88;;;;;;;10.84;59.86;95259.06;5121182;27;20209;-69
2023/12/29 11:29:51;;;;;;;63.40;56.83;;;;;;;11.31;58.79;95263.13;5139281;27;20191;-74
2023/12/29 11:32:26;;;;;;;62.47;56.33;;;;;;;12.03;56.42;95261.09;5121891;27;20218;-73